createdAt,value
2023-09-08T00:01:40.473Z,101367.34
2023-09-08T00:06:43.375Z,101370.96
2023-09-08T00:11:46.107Z,101365.98
2023-09-08T00:16:49.673Z,101365.61
2023-09-08T00:21:52.817Z,101358.71
2023-09-08T00:26:55.883Z,101354.67
2023-09-08T00:31:58.701Z,101352.38
2023-09-08T00:37:08.081Z,101348.70
2023-09-08T00:42:10.846Z,101355.07
2023-09-08T00:47:13.920Z,101354.61
2023-09-08T00:52:17.043Z,101353.73
2023-09-08T00:57:20.126Z,101349.96
2023-09-08T01:02:23.721Z,101341.04
2023-09-08T01:07:30.110Z,101337.28
2023-09-08T01:12:34.407Z,101335.14
2023-09-08T01:17:37.525Z,101331.92
2023-09-08T01:23:05.628Z,101335.21
2023-09-08T01:28:09.614Z,101324.41
2023-09-08T01:33:13.129Z,101316.33
2023-09-08T01:38:21.615Z,101317.14
2023-09-08T01:43:36.339Z,101315.60
2023-09-08T01:48:47.821Z,101313.80
2023-09-08T01:53:51.808Z,101318.14
2023-09-08T01:58:55.125Z,101323.59
2023-09-08T02:03:57.908Z,101323.66
2023-09-08T02:09:00.849Z,101324.09
2023-09-08T02:14:04.375Z,101320.42
2023-09-08T02:19:07.499Z,101317.55
2023-09-08T02:24:11.236Z,101320.19
2023-09-08T02:29:14.217Z,101322.10
2023-09-08T02:34:17.479Z,101321.30
2023-09-08T02:39:20.259Z,101317.48
2023-09-08T02:44:24.225Z,101314.64
2023-09-08T02:49:27.057Z,101310.64
2023-09-08T02:54:29.948Z,101303.34
2023-09-08T02:59:32.688Z,101306.50
2023-09-08T03:04:35.487Z,101299.98
2023-09-08T03:09:38.305Z,101296.58
2023-09-08T03:14:41.100Z,101295.19
2023-09-08T03:19:46.915Z,101288.01
2023-09-08T03:24:49.823Z,101286.13
2023-09-08T03:29:52.743Z,101282.79
2023-09-08T03:34:55.477Z,101284.66
2023-09-08T03:39:58.238Z,101283.27
2023-09-08T03:45:01.261Z,101282.30
2023-09-08T03:50:04.283Z,101283.91
2023-09-08T03:55:07.371Z,101284.98
2023-09-08T04:00:13.202Z,101285.46
2023-09-08T04:05:17.547Z,101281.36
2023-09-08T04:10:21.441Z,101285.49
2023-09-08T04:15:24.384Z,101284.59
2023-09-08T04:20:30.163Z,101292.34
2023-09-08T04:25:32.880Z,101290.88
2023-09-08T04:30:35.659Z,101288.69
2023-09-08T04:35:38.445Z,101289.05
2023-09-08T04:40:42.388Z,101284.91
2023-09-08T04:45:45.187Z,101285.20
2023-09-08T04:50:48.020Z,101286.89
2023-09-08T04:55:52.043Z,101288.30
2023-09-08T05:00:55.152Z,101287.56
2023-09-08T05:05:58.326Z,101283.95
2023-09-08T05:11:02.015Z,101285.49
2023-09-08T05:16:12.875Z,101280.33
2023-09-08T05:21:15.778Z,101277.61
2023-09-08T05:26:18.633Z,101275.35
2023-09-08T05:31:21.813Z,101274.06
2023-09-08T05:36:24.613Z,101280.64
2023-09-08T05:41:27.855Z,101278.20
2023-09-08T05:46:31.148Z,101277.23
2023-09-08T05:51:34.083Z,101274.64
2023-09-08T05:56:38.439Z,101267.58
2023-09-08T06:01:41.870Z,101266.05
2023-09-08T06:06:45.004Z,101267.88
2023-09-08T06:11:48.807Z,101270.52
2023-09-08T06:16:51.744Z,101266.89
2023-09-08T06:21:54.823Z,101261.08
2023-09-08T06:26:58.168Z,101258.13
2023-09-08T06:32:00.990Z,101254.16
2023-09-08T06:37:04.208Z,101250.98
2023-09-08T06:42:07.696Z,101245.33
2023-09-08T06:47:19.144Z,101240.24
2023-09-08T06:52:26.556Z,101244.39
2023-09-08T06:57:30.146Z,101244.02
2023-09-08T07:02:33.443Z,101242.87
2023-09-08T07:07:38.735Z,101241.85
2023-09-08T07:12:41.741Z,101245.33
2023-09-08T07:17:44.976Z,101240.39
2023-09-08T07:22:48.370Z,101239.96
2023-09-08T07:27:53.835Z,101242.75
2023-09-08T07:32:59.446Z,101242.39
2023-09-08T07:38:03.240Z,101247.08
2023-09-08T07:43:06.752Z,101248.86
2023-09-08T07:48:10.055Z,101248.09
2023-09-08T07:53:13.621Z,101246.84
2023-09-08T07:58:23.367Z,101244.73
2023-09-08T08:03:26.428Z,101248.17
2023-09-08T08:08:29.816Z,101242.88
2023-09-08T08:13:33.055Z,101240.73
2023-09-08T08:18:37.032Z,101236.36
2023-09-08T08:23:45.471Z,101235.64
2023-09-08T08:28:54.811Z,101236.09
2023-09-08T08:34:04.597Z,101234.72
2023-09-08T08:39:07.873Z,101223.30
2023-09-08T08:44:11.056Z,101220.84
2023-09-08T08:49:17.281Z,101218.94
2023-09-08T08:54:21.666Z,101212.91
2023-09-08T08:59:25.233Z,101212.52
2023-09-08T09:04:36.339Z,101209.30
2023-09-08T09:09:41.811Z,101205.90
2023-09-08T09:15:09.319Z,101204.20
2023-09-08T09:20:18.813Z,101203.55
2023-09-08T09:25:35.451Z,101202.14
2023-09-08T09:30:52.745Z,101200.70
2023-09-08T09:35:58.699Z,101199.18
2023-09-08T09:41:05.602Z,101198.11
2023-09-08T09:46:10.311Z,101195.79
2023-09-08T09:51:21.729Z,101198.94
2023-09-08T09:56:25.771Z,101197.84
2023-09-08T10:01:31.189Z,101190.48
2023-09-08T10:06:39.124Z,101185.19
2023-09-08T10:11:52.591Z,101180.64
2023-09-08T10:17:00.922Z,101177.02
2023-09-08T10:22:07.719Z,101176.27
2023-09-08T10:27:14.150Z,101169.27
2023-09-08T10:32:19.345Z,101171.50
2023-09-08T10:37:32.215Z,101169.13
2023-09-08T10:42:41.882Z,101166.23
2023-09-08T10:47:48.421Z,101164.66
2023-09-08T10:53:12.103Z,101160.36
2023-09-08T10:58:44.165Z,101164.18
2023-09-08T11:03:58.485Z,101157.44
2023-09-08T11:09:08.669Z,101156.28
2023-09-08T11:14:11.680Z,101151.45
2023-09-08T11:19:14.562Z,101146.15
2023-09-08T11:24:19.379Z,101144.02
2023-09-08T11:29:22.240Z,101139.33
2023-09-08T11:34:25.349Z,101138.10
2023-09-08T11:39:28.118Z,101134.88
2023-09-08T11:44:31.402Z,101130.05
2023-09-08T11:49:36.434Z,101127.39
2023-09-08T11:54:51.851Z,101130.00
2023-09-08T12:00:01.125Z,101119.27
2023-09-08T12:05:04.450Z,101113.57
2023-09-08T12:10:14.173Z,101110.74
2023-09-08T12:15:37.640Z,101101.13
2023-09-08T12:20:43.603Z,101096.52
2023-09-08T12:25:49.070Z,101098.95
2023-09-08T12:30:52.691Z,101093.89
2023-09-08T12:35:55.852Z,101084.28
2023-09-08T12:40:58.888Z,101078.44
2023-09-08T12:46:04.316Z,101075.45
2023-09-08T12:51:07.224Z,101069.64
2023-09-08T12:56:10.087Z,101059.88
2023-09-08T13:01:12.903Z,101055.25
2023-09-08T13:06:15.849Z,101051.04
2023-09-08T13:11:18.742Z,101049.98
2023-09-08T13:16:21.787Z,101039.95
2023-09-08T13:21:25.921Z,101038.15
2023-09-08T13:26:28.918Z,101037.86
2023-09-08T13:31:31.900Z,101030.48
2023-09-08T13:36:35.294Z,101029.83
2023-09-08T13:42:07.612Z,101026.66
2023-09-08T13:47:10.704Z,101024.83
2023-09-08T13:52:15.767Z,101022.89
2023-09-08T13:57:22.137Z,101013.02
2023-09-08T14:02:41.901Z,101011.48
2023-09-08T14:07:47.252Z,101010.14
2023-09-08T14:12:57.892Z,101003.85
2023-09-08T14:18:00.798Z,101001.34
2023-09-08T14:23:03.836Z,100992.11
2023-09-08T14:28:07.441Z,100985.21
2023-09-08T14:33:10.533Z,100984.34
2023-09-08T14:38:17.642Z,100985.09
2023-09-08T14:43:20.806Z,100984.59
2023-09-08T14:48:23.838Z,100980.05
2023-09-08T14:53:29.167Z,100979.67
2023-09-08T14:58:35.371Z,100974.55
2023-09-08T15:03:38.683Z,100973.27
2023-09-08T15:08:47.194Z,100968.73
2023-09-08T15:13:50.050Z,100964.21
2023-09-08T15:18:52.923Z,100966.42
2023-09-08T15:23:56.303Z,100964.93
2023-09-08T15:29:00.347Z,100964.46
2023-09-08T15:34:03.159Z,100966.06
2023-09-08T15:39:06.032Z,100960.18
2023-09-08T15:44:08.868Z,100953.49
2023-09-08T15:49:11.650Z,100955.61
2023-09-08T15:54:14.480Z,100948.16
2023-09-08T15:59:18.165Z,100947.48
2023-09-08T16:04:22.161Z,100952.38
2023-09-08T16:09:25.420Z,100947.91
2023-09-08T16:14:28.219Z,100942.73
2023-09-08T16:19:30.984Z,100943.28
2023-09-08T16:24:33.739Z,100940.35
2023-09-08T16:29:36.484Z,100936.56
2023-09-08T16:34:39.287Z,100940.05
2023-09-08T16:39:42.173Z,100939.30
2023-09-08T16:44:46.151Z,100933.64
2023-09-08T16:49:49.199Z,100934.97
2023-09-08T16:54:52.108Z,100938.52
2023-09-08T16:59:54.865Z,100943.23
2023-09-08T17:04:57.631Z,100947.30
2023-09-08T17:10:00.604Z,100947.36
2023-09-08T17:15:04.123Z,100946.73
2023-09-08T17:20:08.086Z,100952.45
2023-09-08T17:25:12.581Z,100957.39
2023-09-08T17:30:15.393Z,100958.27
2023-09-08T17:35:18.325Z,100963.36
2023-09-08T17:40:21.281Z,100968.64
2023-09-08T17:45:24.474Z,100971.34
2023-09-08T17:50:27.826Z,100975.36
2023-09-08T17:55:30.825Z,100973.90
2023-09-08T18:00:33.664Z,100975.60
2023-09-08T18:05:37.457Z,100974.46
2023-09-08T18:10:43.340Z,100979.63
2023-09-08T18:15:46.183Z,100979.61
2023-09-08T18:20:48.962Z,100976.64
2023-09-08T18:25:53.792Z,100977.60
2023-09-08T18:30:57.501Z,100973.30
2023-09-08T18:36:00.457Z,100968.23
2023-09-08T18:41:03.784Z,100973.02
2023-09-08T18:46:07.164Z,100974.77
2023-09-08T18:51:10.025Z,100973.69
2023-09-08T18:56:15.074Z,100971.21
2023-09-08T19:01:17.848Z,100970.70
2023-09-08T19:06:20.899Z,100967.94
2023-09-08T19:11:23.715Z,100968.75
2023-09-08T19:16:26.568Z,100966.73
2023-09-08T19:21:29.784Z,100962.84
2023-09-08T19:26:32.633Z,100959.27
2023-09-08T19:31:35.361Z,100963.04
2023-09-08T19:36:41.299Z,100960.47
2023-09-08T19:41:44.222Z,100959.23
2023-09-08T19:46:47.006Z,100956.08
2023-09-08T19:51:49.794Z,100952.55
2023-09-08T19:56:52.741Z,100956.30
2023-09-08T20:01:55.571Z,100956.66
2023-09-08T20:06:58.571Z,100950.36
2023-09-08T20:12:01.447Z,100949.61
2023-09-08T20:17:05.098Z,100955.61
2023-09-08T20:22:08.399Z,100953.00
2023-09-08T20:27:11.947Z,100953.71
2023-09-08T20:32:16.050Z,100947.48
2023-09-08T20:37:18.938Z,100946.65
2023-09-08T20:42:21.764Z,100958.93
2023-09-08T20:47:24.533Z,100958.74
2023-09-08T20:52:28.291Z,100958.64
2023-09-08T20:57:31.699Z,100960.28
2023-09-08T21:02:34.522Z,100954.30
2023-09-08T21:07:37.377Z,100955.30
2023-09-08T21:12:40.160Z,100955.43
2023-09-08T21:17:42.980Z,100953.70
2023-09-08T21:22:45.710Z,100955.43
2023-09-08T21:27:48.440Z,100947.81
2023-09-08T21:32:51.318Z,100952.05
2023-09-08T21:37:54.205Z,100947.33
2023-09-08T21:42:58.147Z,100943.88
2023-09-08T21:48:01.027Z,100943.95
2023-09-08T21:53:04.224Z,100938.16
2023-09-08T21:58:06.997Z,100943.49
2023-09-08T22:03:10.688Z,100941.73
2023-09-08T22:08:13.634Z,100944.75
2023-09-08T22:13:16.416Z,100948.43
2023-09-08T22:18:19.224Z,100947.58
2023-09-08T22:23:22.122Z,100950.17
2023-09-08T22:28:24.905Z,100945.22
2023-09-08T22:33:27.962Z,100942.36
2023-09-08T22:38:32.056Z,100942.97
2023-09-08T22:43:35.194Z,100952.29
2023-09-08T22:48:38.337Z,100948.53
2023-09-08T22:53:41.147Z,100949.27
2023-09-08T22:58:43.978Z,100951.27
2023-09-08T23:03:46.848Z,100953.75
2023-09-08T23:08:49.695Z,100948.67
2023-09-08T23:13:53.740Z,100947.19
2023-09-08T23:18:58.749Z,100956.84
2023-09-08T23:24:01.490Z,100954.83
2023-09-08T23:29:11.559Z,100953.92
2023-09-08T23:34:14.919Z,100958.73
2023-09-08T23:39:19.270Z,100955.42
2023-09-08T23:44:23.691Z,100957.14
2023-09-08T23:49:26.554Z,100955.08
2023-09-08T23:54:29.353Z,100956.16
2023-09-08T23:59:32.201Z,100956.08
